createdAt,value
2022-12-18T00:00:14.679Z,6.60
2022-12-18T00:01:25.790Z,7.80
2022-12-18T00:02:27.571Z,6.90
2022-12-18T00:03:29.536Z,7.00
2022-12-18T00:04:31.749Z,6.78
2022-12-18T00:05:33.453Z,6.50
2022-12-18T00:06:36.721Z,6.95
2022-12-18T00:07:39.205Z,6.85
2022-12-18T00:08:42.834Z,6.32
2022-12-18T00:09:44.520Z,6.65
2022-12-18T00:10:46.737Z,6.88
2022-12-18T00:11:48.805Z,6.35
2022-12-18T00:12:50.479Z,7.03
2022-12-18T00:13:54.013Z,5.10
2022-12-18T00:14:55.703Z,6.15
2022-12-18T00:16:03.582Z,6.60
2022-12-18T00:17:05.489Z,7.05
2022-12-18T00:18:07.474Z,6.95
2022-12-18T00:19:11.140Z,7.15
2022-12-18T00:20:12.996Z,6.35
2022-12-18T00:21:15.590Z,6.18
2022-12-18T00:22:17.274Z,7.07
2022-12-18T00:23:19.075Z,7.20
2022-12-18T00:24:20.745Z,7.40
2022-12-18T00:25:23.156Z,6.75
2022-12-18T00:26:28.893Z,5.80
2022-12-18T00:27:30.670Z,6.50
2022-12-18T00:28:32.576Z,7.13
2022-12-18T00:29:34.338Z,6.45
2022-12-18T00:30:36.156Z,7.38
2022-12-18T00:31:39.135Z,6.18
2022-12-18T00:32:41.358Z,6.30
2022-12-18T00:33:43.584Z,6.80
2022-12-18T00:34:45.386Z,5.70
2022-12-18T00:35:47.109Z,7.65
2022-12-18T00:36:49.237Z,6.82
2022-12-18T00:37:50.980Z,5.88
2022-12-18T00:38:54.698Z,5.85
2022-12-18T00:39:56.425Z,7.53
2022-12-18T00:40:58.265Z,6.65
2022-12-18T00:41:59.979Z,6.82
2022-12-18T00:43:01.683Z,8.07
2022-12-18T00:44:04.353Z,7.13
2022-12-18T00:45:12.122Z,6.72
2022-12-18T00:46:14.544Z,5.90
2022-12-18T00:47:16.253Z,6.72
2022-12-18T00:48:18.224Z,6.93
2022-12-18T00:49:21.072Z,6.68
2022-12-18T00:50:25.045Z,6.97
2022-12-18T00:51:27.234Z,7.35
2022-12-18T00:52:28.873Z,8.02
2022-12-18T00:53:30.615Z,6.35
2022-12-18T00:54:32.366Z,7.53
2022-12-18T00:55:34.067Z,8.00
2022-12-18T00:56:45.782Z,7.82
2022-12-18T00:57:53.041Z,6.75
2022-12-18T00:58:54.679Z,8.82
2022-12-18T00:59:56.658Z,7.00
2022-12-18T01:00:58.456Z,7.28
2022-12-18T01:02:00.227Z,7.55
2022-12-18T01:03:02.294Z,6.50
2022-12-18T01:04:04.947Z,6.95
2022-12-18T01:05:07.468Z,8.37
2022-12-18T01:06:12.012Z,7.85
2022-12-18T01:07:13.626Z,7.32
2022-12-18T01:08:15.343Z,7.95
2022-12-18T01:09:17.175Z,8.35
2022-12-18T01:10:19.149Z,8.10
2022-12-18T01:11:22.026Z,8.32
2022-12-18T01:12:23.836Z,6.75
2022-12-18T01:13:25.548Z,7.70
2022-12-18T01:14:27.559Z,10.00
2022-12-18T01:15:29.325Z,9.57
2022-12-18T01:16:31.082Z,10.18
2022-12-18T01:17:33.134Z,10.05
2022-12-18T01:18:34.771Z,8.52
2022-12-18T01:19:36.683Z,8.43
2022-12-18T01:20:39.319Z,7.88
2022-12-18T01:21:40.999Z,8.15
2022-12-18T01:22:43.038Z,9.18
2022-12-18T01:23:44.797Z,7.32
2022-12-18T01:24:46.496Z,7.20
2022-12-18T01:25:48.237Z,9.37
2022-12-18T01:26:49.990Z,7.93
2022-12-18T01:27:51.750Z,8.02
2022-12-18T01:28:55.437Z,7.88
2022-12-18T01:29:57.257Z,8.65
2022-12-18T01:30:59.078Z,6.53
2022-12-18T01:32:00.868Z,10.15
2022-12-18T01:33:02.808Z,8.40
2022-12-18T01:34:06.178Z,6.90
2022-12-18T01:35:08.521Z,7.30
2022-12-18T01:36:23.141Z,7.00
2022-12-18T01:37:25.288Z,5.18
2022-12-18T01:38:27.016Z,7.65
2022-12-18T01:39:28.782Z,7.63
2022-12-18T01:40:30.539Z,7.60
2022-12-18T01:41:34.004Z,6.57
2022-12-18T01:42:35.693Z,6.20
2022-12-18T01:43:54.516Z,6.88
2022-12-18T01:45:07.454Z,6.07
2022-12-18T01:46:09.770Z,6.10
2022-12-18T01:47:21.154Z,7.23
2022-12-18T01:48:22.850Z,5.35
2022-12-18T01:49:24.571Z,6.70
2022-12-18T01:50:35.264Z,7.65
2022-12-18T01:51:37.224Z,6.88
2022-12-18T01:52:41.968Z,7.47
2022-12-18T01:53:45.953Z,5.72
2022-12-18T01:54:50.221Z,6.35
2022-12-18T01:55:57.277Z,7.07
2022-12-18T01:56:59.131Z,6.20
2022-12-18T01:58:01.987Z,6.37
2022-12-18T01:59:07.813Z,5.28
2022-12-18T02:00:16.972Z,5.15
2022-12-18T02:01:19.680Z,5.75
2022-12-18T02:02:22.344Z,6.20
2022-12-18T02:03:24.154Z,4.93
2022-12-18T02:04:27.861Z,5.43
2022-12-18T02:05:32.094Z,5.80
2022-12-18T02:06:41.758Z,4.63
2022-12-18T02:08:24.981Z,5.63
2022-12-18T02:09:37.021Z,4.70
2022-12-18T02:10:53.327Z,5.50
2022-12-18T02:12:24.019Z,6.03
2022-12-18T02:13:41.921Z,5.43
2022-12-18T02:15:08.115Z,6.22
2022-12-18T02:16:15.461Z,5.35
2022-12-18T02:17:46.467Z,6.65
2022-12-18T02:18:57.484Z,6.68
2022-12-18T02:20:21.154Z,7.00
2022-12-18T02:21:33.494Z,5.90
2022-12-18T02:22:38.244Z,6.07
2022-12-18T02:23:53.494Z,7.85
2022-12-18T02:24:57.906Z,6.63
2022-12-18T02:26:06.076Z,6.28
2022-12-18T02:27:10.168Z,6.72
2022-12-18T02:28:16.704Z,8.93
2022-12-18T02:30:45.365Z,5.55
2022-12-18T02:31:52.954Z,7.47
2022-12-18T02:32:56.897Z,6.40
2022-12-18T02:34:03.288Z,7.00
2022-12-18T02:35:09.416Z,6.82
2022-12-18T02:36:14.104Z,5.45
2022-12-18T02:37:19.672Z,5.85
2022-12-18T02:38:21.824Z,5.90
2022-12-18T02:39:26.844Z,5.20
2022-12-18T02:40:29.440Z,6.68
2022-12-18T02:41:32.091Z,5.97
2022-12-18T02:42:33.996Z,7.20
2022-12-18T02:43:35.923Z,6.75
2022-12-18T02:44:47.089Z,6.93
2022-12-18T02:45:53.866Z,6.85
2022-12-18T02:46:55.748Z,6.15
2022-12-18T02:47:57.600Z,8.02
2022-12-18T02:49:25.210Z,11.93
2022-12-18T02:50:45.607Z,6.90
2022-12-18T02:52:18.214Z,5.32
2022-12-18T02:53:34.958Z,5.72
2022-12-18T02:55:09.234Z,4.78
2022-12-18T02:56:16.919Z,6.03
2022-12-18T02:57:34.640Z,5.80
2022-12-18T02:59:24.581Z,4.80
2022-12-18T03:00:31.081Z,5.18
2022-12-18T03:01:40.322Z,6.57
2022-12-18T03:03:04.412Z,6.47
2022-12-18T03:04:13.977Z,5.97
2022-12-18T03:05:21.360Z,6.30
2022-12-18T03:06:33.250Z,6.35
2022-12-18T03:07:54.235Z,5.90
2022-12-18T03:09:03.327Z,8.50
2022-12-18T03:10:08.996Z,7.57
2022-12-18T03:11:13.771Z,5.88
2022-12-18T03:12:25.891Z,7.15
2022-12-18T03:13:42.291Z,6.80
2022-12-18T03:14:46.604Z,5.90
2022-12-18T03:15:54.191Z,7.07
2022-12-18T03:17:00.053Z,5.03
2022-12-18T03:18:14.702Z,5.63
2022-12-18T03:19:21.413Z,7.40
2022-12-18T03:20:27.065Z,7.10
2022-12-18T03:21:36.663Z,6.73
2022-12-18T03:22:39.550Z,4.75
2022-12-18T03:23:49.131Z,4.80
2022-12-18T03:24:53.196Z,5.32
2022-12-18T03:26:04.503Z,5.53
2022-12-18T03:27:15.900Z,5.97
2022-12-18T03:28:22.705Z,6.80
2022-12-18T03:29:36.748Z,5.90
2022-12-18T03:30:41.355Z,7.25
2022-12-18T03:31:49.053Z,6.45
2022-12-18T03:33:17.659Z,7.00
2022-12-18T03:34:28.012Z,10.63
2022-12-18T03:35:38.693Z,9.10
2022-12-18T03:36:40.703Z,8.10
2022-12-18T03:37:42.508Z,7.15
2022-12-18T03:38:44.304Z,6.93
2022-12-18T03:39:45.993Z,7.72
2022-12-18T03:41:18.080Z,6.82
2022-12-18T03:42:31.274Z,7.05
2022-12-18T03:43:58.022Z,6.25
2022-12-18T03:45:35.693Z,5.40
2022-12-18T03:46:51.699Z,6.65
2022-12-18T03:48:30.764Z,5.55
2022-12-18T03:49:32.478Z,6.97
2022-12-18T03:50:46.562Z,5.55
2022-12-18T03:52:03.965Z,7.35
2022-12-18T03:53:23.636Z,7.13
2022-12-18T03:54:27.359Z,6.43
2022-12-18T03:55:33.641Z,8.20
2022-12-18T03:56:43.172Z,7.10
2022-12-18T03:57:46.870Z,6.60
2022-12-18T03:58:50.934Z,7.82
2022-12-18T03:59:58.675Z,8.10
2022-12-18T04:01:03.930Z,7.82
2022-12-18T04:02:08.027Z,7.55
2022-12-18T04:03:12.082Z,8.65
2022-12-18T04:04:16.343Z,8.18
2022-12-18T04:05:18.815Z,9.35
2022-12-18T04:06:21.334Z,7.90
2022-12-18T04:07:24.444Z,8.05
2022-12-18T04:08:27.488Z,7.63
2022-12-18T04:09:31.196Z,10.00
2022-12-18T04:10:33.068Z,9.07
2022-12-18T04:11:34.907Z,8.63
2022-12-18T04:12:38.868Z,9.13
2022-12-18T04:13:41.243Z,9.38
2022-12-18T04:14:43.270Z,8.98
2022-12-18T04:15:45.061Z,8.95
2022-12-18T04:16:46.904Z,9.75
2022-12-18T04:17:50.310Z,9.05
2022-12-18T04:18:52.280Z,9.13
2022-12-18T04:19:53.961Z,8.43
2022-12-18T04:20:55.803Z,7.45
2022-12-18T04:21:57.585Z,9.13
2022-12-18T04:22:59.369Z,8.38
2022-12-18T04:24:01.084Z,8.90
2022-12-18T04:25:02.819Z,8.50
2022-12-18T04:26:04.715Z,7.57
2022-12-18T04:27:07.844Z,7.72
2022-12-18T04:28:09.479Z,8.07
2022-12-18T04:29:11.191Z,8.60
2022-12-18T04:30:13.116Z,8.15
2022-12-18T04:31:15.051Z,9.20
2022-12-18T04:32:16.798Z,9.05
2022-12-18T04:33:19.121Z,9.15
2022-12-18T04:34:21.564Z,9.23
2022-12-18T04:35:23.296Z,9.70
2022-12-18T04:36:25.012Z,10.35
2022-12-18T04:37:26.651Z,8.27
2022-12-18T04:38:28.419Z,9.57
2022-12-18T04:39:30.189Z,9.37
2022-12-18T04:40:31.884Z,9.60
2022-12-18T04:41:33.700Z,7.43
2022-12-18T04:42:35.537Z,8.45
2022-12-18T04:43:37.914Z,10.23
2022-12-18T04:44:39.854Z,11.70
2022-12-18T04:45:41.597Z,12.05
2022-12-18T04:46:43.645Z,10.48
2022-12-18T04:47:45.369Z,10.77
2022-12-18T04:48:47.936Z,11.57
2022-12-18T04:49:49.663Z,9.50
2022-12-18T04:50:51.379Z,9.02
2022-12-18T04:51:53.083Z,11.10
2022-12-18T04:52:55.822Z,9.55
2022-12-18T04:53:57.856Z,9.60
2022-12-18T04:54:59.582Z,9.73
2022-12-18T04:56:09.833Z,10.10
2022-12-18T04:57:11.500Z,9.40
2022-12-18T04:58:13.271Z,9.18
2022-12-18T04:59:14.994Z,8.80
2022-12-18T05:00:16.967Z,11.33
2022-12-18T05:01:20.013Z,11.57
2022-12-18T05:02:21.938Z,10.45
2022-12-18T05:03:23.801Z,10.65
2022-12-18T05:04:25.600Z,11.20
2022-12-18T05:05:27.449Z,9.15
2022-12-18T05:06:29.170Z,11.40
2022-12-18T05:07:30.985Z,11.63
2022-12-18T05:08:33.408Z,10.32
2022-12-18T05:09:35.127Z,9.98
2022-12-18T05:10:38.467Z,8.63
2022-12-18T05:11:40.510Z,10.57
2022-12-18T05:12:42.224Z,9.48
2022-12-18T05:13:45.577Z,10.73
2022-12-18T05:14:47.417Z,9.05
2022-12-18T05:15:53.991Z,8.82
2022-12-18T05:17:00.677Z,8.98
2022-12-18T05:18:04.235Z,9.52
2022-12-18T05:19:05.896Z,9.75
2022-12-18T05:20:08.002Z,8.35
2022-12-18T05:21:09.989Z,9.27
2022-12-18T05:22:11.754Z,8.98
2022-12-18T05:23:13.446Z,9.45
2022-12-18T05:24:15.272Z,9.02
2022-12-18T05:25:17.987Z,10.60
2022-12-18T05:26:19.945Z,9.25
2022-12-18T05:27:21.626Z,10.52
2022-12-18T05:28:24.676Z,10.00
2022-12-18T05:29:26.420Z,8.40
2022-12-18T05:30:28.132Z,8.60
2022-12-18T05:31:32.397Z,8.93
2022-12-18T05:32:37.913Z,8.55
2022-12-18T05:33:39.931Z,8.43
2022-12-18T05:34:41.891Z,10.50
2022-12-18T05:35:44.904Z,9.60
2022-12-18T05:36:46.627Z,7.38
2022-12-18T05:37:48.371Z,7.78
2022-12-18T05:38:50.250Z,9.27
2022-12-18T05:39:51.912Z,9.75
2022-12-18T05:40:54.857Z,9.35
2022-12-18T05:41:56.620Z,8.63
2022-12-18T05:42:58.337Z,6.97
2022-12-18T05:44:00.353Z,11.85
2022-12-18T05:45:02.099Z,10.27
2022-12-18T05:46:17.690Z,7.80
2022-12-18T05:47:19.393Z,8.70
2022-12-18T05:48:21.909Z,7.97
2022-12-18T05:49:23.598Z,9.18
2022-12-18T05:50:25.277Z,8.65
2022-12-18T05:51:27.600Z,11.23
2022-12-18T05:52:29.326Z,10.67
2022-12-18T05:53:31.036Z,10.82
2022-12-18T05:54:32.817Z,9.57
2022-12-18T05:55:40.387Z,8.82
2022-12-18T05:56:48.393Z,9.48
2022-12-18T05:57:50.428Z,8.20
2022-12-18T05:58:54.239Z,9.40
2022-12-18T05:59:55.958Z,7.97
2022-12-18T06:00:58.396Z,8.38
2022-12-18T06:02:00.298Z,8.52
2022-12-18T06:03:03.366Z,9.90
2022-12-18T06:04:05.359Z,11.05
2022-12-18T06:05:07.743Z,9.10
2022-12-18T06:06:15.276Z,10.20
2022-12-18T06:07:16.987Z,8.85
2022-12-18T06:08:18.623Z,8.38
2022-12-18T06:09:20.335Z,11.27
2022-12-18T06:10:22.034Z,8.00
2022-12-18T06:11:26.559Z,8.80
2022-12-18T06:12:28.203Z,9.38
2022-12-18T06:13:29.932Z,10.67
2022-12-18T06:14:31.619Z,9.90
2022-12-18T06:15:33.943Z,10.18
2022-12-18T06:16:35.641Z,8.65
2022-12-18T06:17:37.752Z,9.32
2022-12-18T06:18:39.767Z,10.27
2022-12-18T06:19:41.420Z,9.25
2022-12-18T06:20:43.115Z,8.82
2022-12-18T06:21:44.807Z,9.00
2022-12-18T06:22:46.574Z,9.93
2022-12-18T06:23:48.480Z,9.90
2022-12-18T06:24:50.133Z,8.75
2022-12-18T06:25:52.259Z,8.80
2022-12-18T06:26:53.976Z,10.73
2022-12-18T06:27:55.731Z,10.93
2022-12-18T06:28:57.484Z,9.00
2022-12-18T06:29:59.663Z,8.82
2022-12-18T06:31:01.508Z,11.30
2022-12-18T06:32:03.267Z,9.88
2022-12-18T06:33:05.177Z,10.85
2022-12-18T06:34:06.906Z,10.33
2022-12-18T06:35:09.075Z,8.23
2022-12-18T06:36:13.100Z,9.38
2022-12-18T06:37:14.833Z,9.88
2022-12-18T06:38:16.566Z,9.93
2022-12-18T06:39:18.319Z,9.15
2022-12-18T06:40:20.088Z,9.13
2022-12-18T06:41:22.415Z,11.02
2022-12-18T06:42:25.026Z,9.18
2022-12-18T06:43:26.833Z,8.23
2022-12-18T06:44:28.560Z,10.07
2022-12-18T06:45:30.316Z,11.13
2022-12-18T06:46:32.074Z,14.63
2022-12-18T06:47:33.769Z,15.05
2022-12-18T06:48:36.153Z,16.67
2022-12-18T06:49:37.866Z,17.35
2022-12-18T06:50:43.557Z,11.25
2022-12-18T06:51:45.281Z,11.32
2022-12-18T06:52:47.423Z,11.95
2022-12-18T06:53:49.440Z,9.63
2022-12-18T06:54:51.100Z,10.30
2022-12-18T06:55:52.791Z,10.27
2022-12-18T06:56:58.656Z,9.18
2022-12-18T06:58:00.362Z,11.23
2022-12-18T06:59:02.223Z,10.57
2022-12-18T07:00:06.826Z,10.40
2022-12-18T07:01:11.907Z,10.85
2022-12-18T07:02:13.972Z,9.65
2022-12-18T07:03:15.764Z,13.32
2022-12-18T07:04:17.549Z,14.30
2022-12-18T07:05:19.307Z,11.47
2022-12-18T07:06:23.275Z,11.18
2022-12-18T07:07:25.171Z,14.65
2022-12-18T07:08:27.140Z,12.65
2022-12-18T07:09:31.954Z,13.32
2022-12-18T07:10:33.758Z,14.23
2022-12-18T07:11:35.414Z,14.70
2022-12-18T07:12:37.184Z,16.67
2022-12-18T07:13:39.657Z,14.05
2022-12-18T07:14:41.551Z,12.48
2022-12-18T07:15:44.264Z,11.23
2022-12-18T07:16:47.277Z,12.82
2022-12-18T07:17:49.047Z,10.85
2022-12-18T07:18:50.948Z,10.85
2022-12-18T07:19:52.745Z,12.18
2022-12-18T07:20:54.437Z,9.25
2022-12-18T07:21:56.180Z,13.48
2022-12-18T07:22:57.847Z,11.48
2022-12-18T07:23:59.574Z,12.05
2022-12-18T07:25:01.367Z,10.48
2022-12-18T07:26:14.067Z,11.43
2022-12-18T07:27:15.792Z,7.70
2022-12-18T07:28:17.793Z,10.07
2022-12-18T07:29:19.924Z,9.02
2022-12-18T07:30:21.719Z,9.20
2022-12-18T07:31:23.537Z,10.52
2022-12-18T07:32:25.338Z,9.65
2022-12-18T07:33:27.172Z,8.07
2022-12-18T07:34:29.096Z,10.52
2022-12-18T07:35:30.854Z,8.35
2022-12-18T07:36:32.561Z,10.70
2022-12-18T07:37:34.247Z,10.95
2022-12-18T07:38:36.757Z,9.98
2022-12-18T07:39:38.532Z,10.63
2022-12-18T07:40:40.347Z,11.30
2022-12-18T07:41:46.605Z,10.30
2022-12-18T07:42:49.005Z,11.30
2022-12-18T07:43:50.832Z,9.75
2022-12-18T07:44:53.048Z,11.30
2022-12-18T07:45:54.912Z,10.10
2022-12-18T07:46:56.673Z,10.17
2022-12-18T07:47:58.432Z,10.50
2022-12-18T07:49:00.124Z,8.95
2022-12-18T07:50:01.890Z,9.18
2022-12-18T07:51:06.619Z,10.55
2022-12-18T07:52:08.300Z,10.23
2022-12-18T07:53:10.011Z,11.13
2022-12-18T07:54:11.713Z,11.05
2022-12-18T07:55:13.567Z,9.75
2022-12-18T07:56:31.787Z,8.80
2022-12-18T07:57:49.984Z,11.50
2022-12-18T07:58:52.737Z,9.80
2022-12-18T07:59:54.398Z,10.63
2022-12-18T08:01:07.098Z,9.95
2022-12-18T08:02:09.062Z,11.00
2022-12-18T08:03:10.977Z,9.82
2022-12-18T08:04:13.990Z,10.48
2022-12-18T08:05:15.912Z,11.88
2022-12-18T08:06:17.669Z,10.95
2022-12-18T08:07:19.400Z,11.77
2022-12-18T08:08:21.178Z,10.70
2022-12-18T08:09:22.828Z,11.43
2022-12-18T08:10:24.537Z,9.88
2022-12-18T08:11:28.111Z,12.93
2022-12-18T08:12:29.803Z,10.70
2022-12-18T08:13:31.706Z,9.35
2022-12-18T08:14:33.420Z,12.45
2022-12-18T08:15:35.225Z,13.60
2022-12-18T08:16:37.052Z,10.80
2022-12-18T08:17:38.748Z,10.00
2022-12-18T08:18:40.442Z,13.40
2022-12-18T08:19:42.102Z,11.35
2022-12-18T08:20:43.905Z,15.82
2022-12-18T08:21:45.644Z,16.13
2022-12-18T08:22:47.415Z,16.27
2022-12-18T08:23:51.148Z,13.25
2022-12-18T08:24:53.297Z,15.07
2022-12-18T08:25:54.991Z,11.75
2022-12-18T08:27:27.881Z,10.35
2022-12-18T08:28:18.920Z,11.68
2022-12-18T08:29:21.793Z,13.50
2022-12-18T08:30:23.613Z,12.57
2022-12-18T08:31:27.687Z,11.18
2022-12-18T08:32:30.066Z,10.88
2022-12-18T08:33:32.187Z,11.23
2022-12-18T08:34:33.999Z,10.77
2022-12-18T08:35:45.435Z,11.35
2022-12-18T08:36:47.640Z,10.32
2022-12-18T08:37:49.410Z,11.43
2022-12-18T08:38:51.189Z,10.77
2022-12-18T08:39:52.838Z,11.10
2022-12-18T08:41:06.236Z,10.70
2022-12-18T08:42:10.243Z,9.95
2022-12-18T08:43:12.361Z,11.73
2022-12-18T08:44:14.138Z,12.23
2022-12-18T08:45:16.041Z,10.48
2022-12-18T08:46:19.878Z,11.38
2022-12-18T08:47:21.765Z,11.02
2022-12-18T08:48:23.551Z,10.80
2022-12-18T08:49:25.187Z,13.05
2022-12-18T08:50:26.919Z,10.27
2022-12-18T08:51:28.623Z,9.80
2022-12-18T08:52:33.275Z,10.02
2022-12-18T08:53:35.900Z,11.60
2022-12-18T08:54:37.799Z,12.32
2022-12-18T08:55:39.468Z,11.18
2022-12-18T08:56:41.200Z,14.25
2022-12-18T08:57:42.948Z,9.75
2022-12-18T08:58:44.837Z,10.20
2022-12-18T08:59:46.543Z,11.73
2022-12-18T09:00:48.292Z,12.73
2022-12-18T09:01:50.169Z,8.68
2022-12-18T09:02:51.999Z,9.15
2022-12-18T09:03:53.752Z,11.40
2022-12-18T09:04:57.504Z,11.55
2022-12-18T09:06:00.032Z,10.95
2022-12-18T09:07:01.727Z,11.40
2022-12-18T09:08:03.491Z,11.57
2022-12-18T09:09:06.152Z,10.90
2022-12-18T09:10:08.290Z,12.60
2022-12-18T09:11:25.013Z,15.03
2022-12-18T09:12:26.896Z,13.45
2022-12-18T09:13:28.671Z,11.50
2022-12-18T09:14:30.370Z,9.73
2022-12-18T09:15:32.052Z,11.98
2022-12-18T09:16:34.213Z,10.43
2022-12-18T09:17:36.404Z,10.13
2022-12-18T09:18:38.468Z,11.60
2022-12-18T09:19:40.613Z,11.13
2022-12-18T09:20:42.509Z,7.53
2022-12-18T09:21:47.958Z,10.90
2022-12-18T09:22:50.196Z,10.85
2022-12-18T09:23:52.730Z,10.00
2022-12-18T09:24:54.416Z,14.52
2022-12-18T09:26:00.580Z,10.55
2022-12-18T09:27:02.478Z,10.57
2022-12-18T09:28:12.978Z,9.55
2022-12-18T09:29:16.787Z,9.25
2022-12-18T09:30:20.800Z,10.65
2022-12-18T09:31:24.851Z,9.57
2022-12-18T09:32:26.819Z,10.63
2022-12-18T09:33:28.473Z,7.97
2022-12-18T09:34:30.158Z,11.07
2022-12-18T09:35:31.921Z,11.82
2022-12-18T09:36:34.143Z,11.50
2022-12-18T09:37:35.862Z,11.32
2022-12-18T09:38:37.949Z,12.10
2022-12-18T09:39:39.829Z,11.35
2022-12-18T09:40:46.811Z,12.05
2022-12-18T09:41:53.633Z,9.25
2022-12-18T09:43:00.905Z,10.90
2022-12-18T09:44:21.142Z,8.98
2022-12-18T09:45:24.434Z,12.50
2022-12-18T09:46:36.476Z,9.57
2022-12-18T09:47:40.315Z,10.80
2022-12-18T09:48:47.300Z,10.38
2022-12-18T09:49:55.025Z,11.52
2022-12-18T09:51:03.828Z,10.55
2022-12-18T09:52:38.552Z,10.35
2022-12-18T09:53:44.631Z,9.82
2022-12-18T09:54:56.112Z,12.57
2022-12-18T09:55:58.551Z,10.43
2022-12-18T09:57:00.517Z,12.00
2022-12-18T09:58:10.641Z,12.35
2022-12-18T09:59:35.293Z,12.45
2022-12-18T10:00:37.192Z,12.88
2022-12-18T10:01:44.124Z,11.60
2022-12-18T10:02:47.442Z,12.50
2022-12-18T10:03:49.886Z,9.73
2022-12-18T10:05:06.320Z,11.02
2022-12-18T10:06:15.234Z,11.87
2022-12-18T10:07:36.709Z,9.48
2022-12-18T10:08:53.175Z,9.45
2022-12-18T10:10:09.570Z,10.13
2022-12-18T10:11:35.956Z,10.20
2022-12-18T10:12:53.385Z,9.68
2022-12-18T10:14:10.097Z,9.65
2022-12-18T10:15:34.262Z,9.80
2022-12-18T10:16:41.660Z,11.45
2022-12-18T10:17:49.942Z,10.73
2022-12-18T10:19:12.648Z,10.83
2022-12-18T10:20:36.157Z,11.18
2022-12-18T10:21:53.711Z,19.85
2022-12-18T10:23:10.275Z,12.10
2022-12-18T10:24:19.355Z,12.77
2022-12-18T10:25:26.234Z,13.63
2022-12-18T10:26:27.934Z,14.60
2022-12-18T10:27:30.099Z,14.63
2022-12-18T10:28:36.574Z,15.25
2022-12-18T10:29:39.046Z,12.75
2022-12-18T10:30:42.752Z,12.70
2022-12-18T10:31:44.648Z,10.52
2022-12-18T10:32:46.579Z,13.48
2022-12-18T10:33:48.604Z,13.13
2022-12-18T10:34:58.315Z,16.23
2022-12-18T10:36:02.047Z,19.85
2022-12-18T10:37:12.874Z,15.57
2022-12-18T10:38:17.272Z,14.77
2022-12-18T10:39:23.445Z,14.55
2022-12-18T10:40:25.311Z,15.43
2022-12-18T10:41:27.905Z,14.90
2022-12-18T10:42:31.351Z,12.73
2022-12-18T10:43:38.459Z,13.88
2022-12-18T10:44:40.186Z,18.42
2022-12-18T10:45:43.195Z,19.02
2022-12-18T10:46:51.388Z,15.00
2022-12-18T10:47:53.578Z,27.10
2022-12-18T10:48:57.010Z,13.90
2022-12-18T10:49:58.712Z,14.32
2022-12-18T10:51:10.920Z,14.73
2022-12-18T10:52:25.329Z,14.67
2022-12-18T10:53:30.195Z,14.10
2022-12-18T10:54:33.745Z,13.10
2022-12-18T10:55:38.766Z,11.95
2022-12-18T10:56:40.813Z,12.40
2022-12-18T10:57:44.271Z,12.85
2022-12-18T10:58:58.571Z,12.00
2022-12-18T11:00:14.322Z,11.85
2022-12-18T11:01:18.755Z,11.10
2022-12-18T11:02:50.578Z,11.50
2022-12-18T11:03:59.024Z,10.47
2022-12-18T11:05:23.325Z,11.57
2022-12-18T11:06:26.638Z,11.82
2022-12-18T11:07:49.508Z,12.43
2022-12-18T11:09:13.108Z,11.43
2022-12-18T11:10:18.948Z,13.35
2022-12-18T11:11:23.456Z,13.32
2022-12-18T11:12:25.209Z,11.75
2022-12-18T11:13:30.131Z,10.77
2022-12-18T11:14:34.490Z,12.27
2022-12-18T11:15:36.842Z,10.93
2022-12-18T11:17:03.173Z,10.57
2022-12-18T11:18:18.093Z,9.63
2022-12-18T11:19:32.613Z,9.98
2022-12-18T11:20:36.856Z,9.90
2022-12-18T11:21:43.507Z,10.30
2022-12-18T11:22:57.678Z,10.63
2022-12-18T11:23:59.832Z,9.63
2022-12-18T11:26:36.928Z,9.55
2022-12-18T11:27:40.457Z,11.97
2022-12-18T11:28:47.462Z,14.18
2022-12-18T11:29:52.039Z,11.70
2022-12-18T11:31:21.528Z,11.15
2022-12-18T11:32:33.375Z,10.15
2022-12-18T11:33:35.836Z,9.77
2022-12-18T11:34:38.004Z,9.98
2022-12-18T11:36:00.475Z,9.98
2022-12-18T11:37:04.590Z,10.88
2022-12-18T11:38:36.979Z,10.35
2022-12-18T11:39:46.151Z,8.57
2022-12-18T11:41:04.129Z,9.30
2022-12-18T11:42:13.757Z,8.13
2022-12-18T11:43:26.106Z,10.45
2022-12-18T11:44:54.072Z,10.10
2022-12-18T11:46:26.213Z,9.95
2022-12-18T11:47:45.245Z,9.65
2022-12-18T11:48:58.233Z,9.82
2022-12-18T11:50:04.734Z,9.98
2022-12-18T11:51:13.908Z,10.27
2022-12-18T11:52:21.013Z,8.67
2022-12-18T11:53:23.554Z,9.35
2022-12-18T11:54:25.258Z,8.05
2022-12-18T11:55:40.379Z,9.55
2022-12-18T11:57:05.798Z,9.73
2022-12-18T11:58:31.589Z,8.77
2022-12-18T11:59:47.848Z,9.77
2022-12-18T12:01:02.776Z,8.43
2022-12-18T12:02:26.259Z,7.90
2022-12-18T12:04:16.078Z,7.43
2022-12-18T12:05:39.497Z,9.57
2022-12-18T12:07:18.968Z,9.13
2022-12-18T12:08:39.337Z,8.02
2022-12-18T12:10:01.863Z,17.98
2022-12-18T12:11:28.515Z,16.55
2022-12-18T12:12:35.981Z,10.02
2022-12-18T12:14:00.375Z,9.70
2022-12-18T12:15:40.213Z,7.60
2022-12-18T12:16:58.369Z,7.53
2022-12-18T12:18:19.891Z,7.38
2022-12-18T12:19:44.685Z,9.10
2022-12-18T12:21:01.571Z,8.50
2022-12-18T12:22:19.580Z,9.52
2022-12-18T12:23:50.770Z,6.10
2022-12-18T12:25:11.100Z,6.95
2022-12-18T12:26:34.613Z,7.28
2022-12-18T12:27:54.599Z,7.50
2022-12-18T12:29:20.959Z,7.30
2022-12-18T12:30:41.757Z,6.93
2022-12-18T12:31:57.669Z,5.53
2022-12-18T12:33:02.039Z,7.63
2022-12-18T12:34:36.346Z,7.95
2022-12-18T12:36:10.852Z,7.90
2022-12-18T12:37:38.455Z,7.55
2022-12-18T12:38:51.934Z,7.00
2022-12-18T12:39:55.928Z,8.75
2022-12-18T12:41:06.693Z,8.70
2022-12-18T12:42:20.021Z,8.50
2022-12-18T12:43:25.499Z,11.55
2022-12-18T12:44:40.527Z,8.45
2022-12-18T12:46:08.401Z,8.20
2022-12-18T12:47:29.516Z,7.55
2022-12-18T12:48:52.034Z,10.07
2022-12-18T12:49:55.446Z,8.27
2022-12-18T12:50:58.097Z,8.70
2022-12-18T12:52:11.958Z,7.82
2022-12-18T12:53:35.657Z,7.70
2022-12-18T12:54:38.381Z,7.97
2022-12-18T12:55:42.561Z,8.60
2022-12-18T12:57:09.982Z,8.95
2022-12-18T12:58:30.408Z,7.17
2022-12-18T12:59:58.803Z,9.55
2022-12-18T13:01:16.193Z,8.77
2022-12-18T13:02:47.833Z,9.50
2022-12-18T13:03:49.886Z,8.15
2022-12-18T13:05:18.466Z,8.20
2022-12-18T13:06:50.959Z,9.55
2022-12-18T13:07:59.365Z,9.25
2022-12-18T13:09:02.063Z,8.80
2022-12-18T13:10:17.217Z,8.90
2022-12-18T13:11:37.587Z,8.07
2022-12-18T13:12:53.082Z,8.35
2022-12-18T13:13:57.098Z,7.82
2022-12-18T13:15:39.860Z,8.63
2022-12-18T13:16:41.894Z,8.63
2022-12-18T13:17:43.727Z,10.63
2022-12-18T13:19:02.015Z,9.95
2022-12-18T13:20:03.986Z,9.00
2022-12-18T13:21:22.429Z,9.88
2022-12-18T13:22:31.420Z,10.52
2022-12-18T13:23:35.271Z,9.57
2022-12-18T13:24:37.427Z,10.52
2022-12-18T13:25:39.634Z,9.90
2022-12-18T13:26:41.298Z,10.38
2022-12-18T13:27:46.106Z,9.27
2022-12-18T13:28:48.891Z,9.18
2022-12-18T13:29:50.624Z,8.70
2022-12-18T13:30:58.736Z,9.02
2022-12-18T13:32:01.858Z,11.10
2022-12-18T13:33:15.909Z,10.50
2022-12-18T13:34:27.403Z,10.33
2022-12-18T13:35:40.159Z,9.32
2022-12-18T13:36:41.900Z,10.15
2022-12-18T13:37:52.235Z,11.68
2022-12-18T13:39:23.872Z,9.75
2022-12-18T13:40:48.579Z,9.90
2022-12-18T13:41:55.210Z,9.65
2022-12-18T13:42:56.936Z,10.48
2022-12-18T13:44:41.851Z,10.43
2022-12-18T13:45:47.651Z,6.97
2022-12-18T13:46:51.971Z,9.90
2022-12-18T13:47:54.616Z,10.25
2022-12-18T13:49:42.496Z,10.68
2022-12-18T13:50:49.201Z,8.73
2022-12-18T13:51:54.754Z,9.32
2022-12-18T13:52:56.490Z,8.80
2022-12-18T13:54:07.105Z,10.70
2022-12-18T13:55:17.334Z,8.15
2022-12-18T13:56:24.798Z,8.82
2022-12-18T13:57:28.718Z,10.50
2022-12-18T13:58:31.156Z,10.47
2022-12-18T13:59:38.311Z,10.00
2022-12-18T14:00:44.704Z,9.38
2022-12-18T14:01:55.198Z,10.98
2022-12-18T14:02:59.085Z,10.23
2022-12-18T14:04:19.808Z,8.85
2022-12-18T14:05:38.642Z,10.23
2022-12-18T14:06:42.676Z,9.88
2022-12-18T14:07:48.983Z,10.32
2022-12-18T14:08:55.376Z,9.57
2022-12-18T14:10:25.993Z,11.03
2022-12-18T14:11:23.957Z,9.10
2022-12-18T14:12:33.328Z,10.00
2022-12-18T14:13:43.001Z,9.95
2022-12-18T14:14:48.058Z,9.93
2022-12-18T14:15:51.683Z,9.40
2022-12-18T14:16:53.705Z,8.40
2022-12-18T14:18:13.469Z,10.25
2022-12-18T14:19:18.725Z,9.68
2022-12-18T14:20:21.722Z,9.50
2022-12-18T14:21:27.452Z,9.77
2022-12-18T14:22:30.102Z,9.85
2022-12-18T14:23:43.031Z,10.10
2022-12-18T14:24:45.657Z,8.02
2022-12-18T14:25:47.742Z,9.73
2022-12-18T14:26:51.030Z,11.65
2022-12-18T14:28:09.408Z,11.43
2022-12-18T14:29:26.416Z,12.90
2022-12-18T14:30:32.017Z,14.80
2022-12-18T14:31:33.804Z,11.27
2022-12-18T14:32:35.704Z,14.83
2022-12-18T14:33:39.631Z,23.52
2022-12-18T14:34:41.670Z,26.15
2022-12-18T14:35:53.819Z,25.98
2022-12-18T14:36:55.573Z,25.45
2022-12-18T14:38:29.661Z,20.80
2022-12-18T14:39:31.364Z,18.05
2022-12-18T14:40:33.061Z,23.98
2022-12-18T14:41:34.927Z,24.95